createdAt,value
2023-05-02T00:00:45.298Z,12.60
2023-05-02T00:03:13.857Z,12.60
2023-05-02T00:05:42.194Z,12.60
2023-05-02T00:08:10.663Z,12.60
2023-05-02T00:10:38.668Z,12.60
2023-05-02T00:13:08.062Z,12.60
2023-05-02T00:15:36.152Z,12.60
2023-05-02T00:18:04.233Z,12.60
2023-05-02T00:20:32.282Z,12.60
2023-05-02T00:23:00.304Z,12.60
2023-05-02T00:25:28.735Z,12.60
2023-05-02T00:27:56.989Z,12.60
2023-05-02T00:30:26.388Z,12.60
2023-05-02T00:32:55.106Z,12.60
2023-05-02T00:35:23.162Z,12.60
2023-05-02T00:37:51.205Z,12.60
2023-05-02T00:40:19.520Z,12.60
2023-05-02T00:42:47.553Z,12.60
2023-05-02T00:45:15.839Z,12.60
2023-05-02T00:47:45.613Z,12.60
2023-05-02T00:50:13.712Z,12.60
2023-05-02T00:52:42.147Z,12.60
2023-05-02T00:55:10.456Z,12.60
2023-05-02T00:57:38.999Z,12.60
2023-05-02T01:00:11.080Z,12.60
2023-05-02T01:02:49.587Z,12.60
2023-05-02T01:05:22.159Z,12.50
2023-05-02T01:08:11.641Z,12.50
2023-05-02T01:10:49.883Z,12.50
2023-05-02T01:13:23.181Z,12.50
2023-05-02T01:15:52.921Z,12.50
2023-05-02T01:18:25.709Z,12.50
2023-05-02T01:20:59.478Z,12.50
2023-05-02T01:23:36.130Z,12.50
2023-05-02T01:26:28.069Z,12.60
2023-05-02T01:29:02.402Z,12.60
2023-05-02T01:31:32.288Z,12.60
2023-05-02T01:34:01.911Z,12.60
2023-05-02T01:36:32.511Z,12.60
2023-05-02T01:39:02.810Z,12.60
2023-05-02T01:41:33.617Z,12.60
2023-05-02T01:44:04.571Z,12.60
2023-05-02T01:46:35.811Z,12.60
2023-05-02T01:49:07.534Z,12.60
2023-05-02T01:51:39.037Z,12.50
2023-05-02T01:54:10.260Z,12.40
2023-05-02T01:56:40.408Z,12.40
2023-05-02T01:59:14.043Z,12.30
2023-05-02T02:01:43.856Z,12.30
2023-05-02T02:04:16.215Z,12.20
2023-05-02T02:06:49.973Z,12.10
2023-05-02T02:09:18.175Z,12.10
2023-05-02T02:11:50.788Z,12.10
2023-05-02T02:14:23.345Z,12.00
2023-05-02T02:16:54.930Z,12.00
2023-05-02T02:19:24.154Z,11.90
2023-05-02T02:21:54.566Z,11.90
2023-05-02T02:24:24.907Z,11.80
2023-05-02T02:26:53.336Z,11.80
2023-05-02T02:29:23.000Z,11.70
2023-05-02T02:31:51.304Z,11.70
2023-05-02T02:34:19.524Z,11.60
2023-05-02T02:36:55.423Z,11.60
2023-05-02T02:39:40.655Z,11.60
2023-05-02T02:42:14.231Z,11.50
2023-05-02T02:44:51.953Z,11.50
2023-05-02T02:47:26.018Z,11.40
2023-05-02T02:50:08.569Z,11.30
2023-05-02T02:52:47.157Z,11.30
2023-05-02T02:55:21.495Z,11.20
2023-05-02T02:57:52.899Z,11.10
2023-05-02T03:00:25.863Z,11.00
2023-05-02T03:02:56.222Z,11.00
2023-05-02T03:05:24.813Z,10.90
2023-05-02T03:07:53.552Z,10.90
2023-05-02T03:10:24.296Z,10.80
2023-05-02T03:12:56.059Z,10.80
2023-05-02T03:16:03.315Z,10.80
2023-05-02T03:18:31.969Z,10.70
2023-05-02T03:21:01.033Z,10.60
2023-05-02T03:23:29.092Z,10.60
2023-05-02T03:25:58.163Z,10.50
2023-05-02T03:28:27.366Z,10.50
2023-05-02T03:30:56.988Z,10.40
2023-05-02T03:33:25.746Z,10.50
2023-05-02T03:35:53.806Z,10.50
2023-05-02T03:38:22.609Z,10.40
2023-05-02T03:40:51.580Z,10.40
2023-05-02T03:43:19.950Z,10.40
2023-05-02T03:45:48.836Z,10.40
2023-05-02T03:48:20.139Z,10.30
2023-05-02T03:50:48.965Z,10.30
2023-05-02T03:53:17.523Z,10.30
2023-05-02T03:55:53.724Z,10.20
2023-05-02T03:58:29.556Z,10.20
2023-05-02T04:00:57.873Z,10.20
2023-05-02T04:03:30.224Z,10.20
2023-05-02T04:06:00.464Z,10.20
2023-05-02T04:08:29.134Z,10.10
2023-05-02T04:10:58.036Z,10.20
2023-05-02T04:13:26.537Z,10.30
2023-05-02T04:15:54.642Z,10.40
2023-05-02T04:18:24.531Z,10.40
2023-05-02T04:20:55.631Z,10.40
2023-05-02T04:23:25.471Z,10.40
2023-05-02T04:25:58.917Z,10.30
2023-05-02T04:28:37.091Z,10.30
2023-05-02T04:31:06.324Z,10.30
2023-05-02T04:33:34.419Z,10.20
2023-05-02T04:36:04.206Z,10.20
2023-05-02T04:38:33.889Z,10.20
2023-05-02T04:41:08.784Z,10.10
2023-05-02T04:43:43.276Z,10.10
2023-05-02T04:46:11.896Z,10.10
2023-05-02T04:48:42.052Z,10.10
2023-05-02T04:51:13.069Z,10.10
2023-05-02T04:53:43.776Z,10.00
2023-05-02T04:56:12.552Z,10.00
2023-05-02T04:58:40.611Z,10.00
2023-05-02T05:01:11.063Z,10.00
2023-05-02T05:03:39.657Z,10.00
2023-05-02T05:06:09.078Z,10.00
2023-05-02T05:08:39.988Z,10.00
2023-05-02T05:11:08.181Z,10.00
2023-05-02T05:13:37.516Z,10.00
2023-05-02T05:16:08.048Z,10.00
2023-05-02T05:18:40.620Z,10.00
2023-05-02T05:21:12.451Z,10.10
2023-05-02T05:23:45.898Z,10.00
2023-05-02T05:26:18.075Z,10.10
2023-05-02T05:28:50.354Z,10.10
2023-05-02T05:31:20.100Z,10.10
2023-05-02T05:33:51.781Z,10.10
2023-05-02T05:36:23.567Z,10.10
2023-05-02T05:38:53.585Z,10.10
2023-05-02T05:41:23.332Z,10.20
2023-05-02T05:43:56.749Z,10.20
2023-05-02T05:46:27.696Z,10.20
2023-05-02T05:48:56.213Z,10.20
2023-05-02T05:51:24.286Z,10.10
2023-05-02T05:53:54.221Z,10.10
2023-05-02T05:56:23.135Z,10.10
2023-05-02T05:59:00.906Z,10.20
2023-05-02T06:01:28.965Z,10.10
2023-05-02T06:03:57.801Z,10.10
2023-05-02T06:06:27.746Z,10.00
2023-05-02T06:08:57.476Z,9.90
2023-05-02T06:11:26.150Z,9.90
2023-05-02T06:13:54.920Z,9.90
2023-05-02T06:16:23.334Z,9.80
2023-05-02T06:18:53.924Z,9.90
2023-05-02T06:21:22.202Z,9.90
2023-05-02T06:23:50.262Z,9.90
2023-05-02T06:26:19.895Z,9.90
2023-05-02T06:28:48.175Z,10.00
2023-05-02T06:31:16.445Z,10.00
2023-05-02T06:33:44.503Z,10.00
2023-05-02T06:36:12.850Z,10.00
2023-05-02T06:38:40.886Z,10.00
2023-05-02T06:41:17.309Z,10.00
2023-05-02T06:43:47.573Z,10.00
2023-05-02T06:46:15.830Z,10.00
2023-05-02T06:48:43.845Z,10.00
2023-05-02T06:51:12.091Z,10.00
2023-05-02T06:53:40.350Z,10.10
2023-05-02T06:56:08.693Z,10.10
2023-05-02T06:58:37.033Z,10.10
2023-05-02T07:01:06.804Z,10.20
2023-05-02T07:03:34.838Z,10.30
2023-05-02T07:06:03.125Z,10.40
2023-05-02T07:08:31.414Z,10.50
2023-05-02T07:10:59.399Z,10.70
2023-05-02T07:13:27.674Z,10.80
2023-05-02T07:15:56.471Z,10.90
2023-05-02T07:18:25.886Z,11.00
2023-05-02T07:20:55.081Z,10.90
2023-05-02T07:23:23.360Z,11.00
2023-05-02T07:25:51.443Z,11.10
2023-05-02T07:28:19.692Z,11.10
2023-05-02T07:30:48.390Z,11.10
2023-05-02T07:33:16.735Z,11.10
2023-05-02T07:35:46.770Z,11.00
2023-05-02T07:38:15.677Z,11.00
2023-05-02T07:40:43.713Z,11.00
2023-05-02T07:43:12.281Z,11.00
2023-05-02T07:45:40.497Z,11.20
2023-05-02T07:48:08.629Z,11.40
2023-05-02T07:50:37.012Z,11.60
2023-05-02T07:53:06.363Z,11.90
2023-05-02T07:55:34.391Z,12.10
2023-05-02T07:58:04.253Z,12.30
2023-05-02T08:00:32.232Z,12.40
2023-05-02T08:03:00.584Z,12.60
2023-05-02T08:05:29.365Z,12.60
2023-05-02T08:07:57.581Z,12.60
2023-05-02T08:10:27.828Z,12.60
2023-05-02T08:12:56.068Z,12.60
2023-05-02T08:15:24.492Z,12.70
2023-05-02T08:17:52.829Z,12.70
2023-05-02T08:20:22.476Z,12.70
2023-05-02T08:22:51.654Z,12.70
2023-05-02T08:25:19.703Z,12.70
2023-05-02T08:27:49.054Z,12.70
2023-05-02T08:30:17.625Z,12.70
2023-05-02T08:32:47.524Z,12.80
2023-05-02T08:35:15.655Z,12.90
2023-05-02T08:37:44.166Z,12.90
2023-05-02T08:40:13.950Z,13.10
2023-05-02T08:42:46.152Z,13.20
2023-05-02T08:45:16.854Z,13.30
2023-05-02T08:47:45.790Z,13.30
2023-05-02T08:50:13.852Z,13.10
2023-05-02T08:52:44.246Z,13.20
2023-05-02T08:55:14.759Z,13.40
2023-05-02T08:57:45.162Z,13.90
2023-05-02T09:00:16.412Z,14.40
2023-05-02T09:02:58.137Z,15.20
2023-05-02T09:05:26.779Z,15.90
2023-05-02T09:07:54.820Z,16.30
2023-05-02T09:10:23.006Z,16.30
2023-05-02T09:12:51.265Z,16.00
2023-05-02T09:15:21.834Z,15.80
2023-05-02T09:17:50.386Z,15.40
2023-05-02T09:20:18.815Z,15.00
2023-05-02T09:22:51.222Z,14.60
2023-05-02T09:25:20.595Z,14.40
2023-05-02T09:27:51.853Z,14.50
2023-05-02T09:30:24.452Z,14.70
2023-05-02T09:32:55.476Z,15.10
2023-05-02T09:35:27.635Z,15.50
2023-05-02T09:37:56.980Z,15.70
2023-05-02T09:40:25.576Z,16.00
2023-05-02T09:42:54.316Z,16.10
2023-05-02T09:45:25.163Z,16.20
2023-05-02T09:47:53.925Z,16.20
2023-05-02T09:50:39.055Z,16.40
2023-05-02T09:53:08.584Z,17.10
2023-05-02T09:55:36.763Z,17.80
2023-05-02T09:58:06.141Z,18.40
2023-05-02T10:00:43.421Z,18.80
2023-05-02T10:03:17.198Z,19.40
2023-05-02T10:05:46.815Z,20.00
2023-05-02T10:08:17.598Z,19.70
2023-05-02T10:10:50.407Z,19.30
2023-05-02T10:13:21.462Z,18.90
2023-05-02T10:15:57.132Z,18.40
2023-05-02T10:18:29.756Z,18.30
2023-05-02T10:20:59.939Z,18.00
2023-05-02T10:23:29.946Z,17.90
2023-05-02T10:26:00.503Z,17.70
2023-05-02T10:28:29.021Z,17.60
2023-05-02T10:30:59.565Z,17.60
2023-05-02T10:33:28.943Z,17.60
2023-05-02T10:35:57.141Z,17.80
2023-05-02T10:38:25.601Z,17.80
2023-05-02T10:40:57.098Z,17.50
2023-05-02T10:43:27.883Z,17.30
2023-05-02T10:45:56.632Z,17.20
2023-05-02T10:48:27.201Z,17.00
2023-05-02T10:50:58.862Z,16.60
2023-05-02T10:53:29.563Z,16.10
2023-05-02T10:56:17.716Z,15.50
2023-05-02T10:58:46.601Z,15.10
2023-05-02T11:01:36.659Z,14.80
2023-05-02T11:04:07.750Z,14.80
2023-05-02T11:06:37.289Z,14.80
2023-05-02T11:09:36.377Z,15.10
2023-05-02T11:12:08.667Z,15.60
2023-05-02T11:14:50.022Z,16.80
2023-05-02T11:17:19.284Z,18.90
2023-05-02T11:20:29.807Z,20.70
2023-05-02T11:23:02.569Z,21.50
2023-05-02T11:25:38.614Z,20.60
2023-05-02T11:28:10.302Z,19.80
2023-05-02T11:30:48.458Z,19.00
2023-05-02T11:33:20.716Z,18.00
2023-05-02T11:35:49.916Z,16.90
2023-05-02T11:38:22.230Z,16.20
2023-05-02T11:40:58.189Z,15.50
2023-05-02T11:43:30.727Z,15.00
2023-05-02T11:46:01.984Z,14.70
2023-05-02T11:48:31.965Z,14.30
2023-05-02T11:51:05.201Z,14.00
2023-05-02T11:53:35.425Z,13.90
2023-05-02T11:56:05.578Z,14.10
2023-05-02T11:58:34.641Z,14.40
2023-05-02T12:01:14.337Z,14.70
2023-05-02T12:03:43.077Z,15.20
2023-05-02T12:06:13.081Z,15.60
2023-05-02T12:08:46.277Z,16.00
2023-05-02T12:11:15.604Z,16.30
2023-05-02T12:13:47.596Z,16.80
2023-05-02T12:16:16.156Z,18.00
2023-05-02T12:18:44.448Z,19.30
2023-05-02T12:21:12.688Z,20.60
2023-05-02T12:23:43.309Z,21.50
2023-05-02T12:26:25.136Z,21.60
2023-05-02T12:28:55.530Z,21.60
2023-05-02T12:31:24.249Z,21.60
2023-05-02T12:33:55.506Z,22.00
2023-05-02T12:36:23.914Z,22.70
2023-05-02T12:38:54.619Z,22.70
2023-05-02T12:41:35.361Z,22.20
2023-05-02T12:44:03.553Z,21.80
2023-05-02T12:46:32.972Z,21.10
2023-05-02T12:49:05.960Z,20.60
2023-05-02T12:51:34.596Z,19.90
2023-05-02T12:54:02.845Z,19.10
2023-05-02T12:56:33.211Z,18.30
2023-05-02T12:59:05.320Z,17.60
2023-05-02T13:01:35.202Z,17.20
2023-05-02T13:04:03.674Z,17.10
2023-05-02T13:06:32.160Z,17.10
2023-05-02T13:09:00.335Z,17.20
2023-05-02T13:11:28.367Z,17.20
2023-05-02T13:13:56.468Z,17.50
2023-05-02T13:16:26.131Z,17.70
2023-05-02T13:18:54.343Z,17.90
2023-05-02T13:21:22.601Z,17.80
2023-05-02T13:23:51.970Z,17.40
2023-05-02T13:26:22.174Z,16.90
2023-05-02T13:28:50.151Z,16.60
2023-05-02T13:31:18.554Z,16.30
2023-05-02T13:33:48.053Z,16.20
2023-05-02T13:36:16.165Z,16.00
2023-05-02T13:38:44.597Z,15.80
2023-05-02T13:41:12.629Z,15.80
2023-05-02T13:43:42.601Z,15.70
2023-05-02T13:46:10.962Z,15.60
2023-05-02T13:48:39.198Z,15.40
2023-05-02T13:51:08.797Z,15.30
2023-05-02T13:53:37.745Z,15.20
2023-05-02T13:56:06.196Z,15.10
2023-05-02T13:58:34.215Z,15.00
2023-05-02T14:01:02.538Z,14.90
2023-05-02T14:03:30.658Z,15.00
2023-05-02T14:05:58.698Z,15.30
2023-05-02T14:08:28.476Z,15.70
2023-05-02T14:10:56.540Z,15.80
2023-05-02T14:13:24.813Z,15.90
2023-05-02T14:15:54.087Z,15.80
2023-05-02T14:18:22.273Z,15.40
2023-05-02T14:20:50.348Z,15.00
2023-05-02T14:23:18.789Z,14.60
2023-05-02T14:25:48.156Z,14.30
2023-05-02T14:28:19.092Z,14.00
2023-05-02T14:30:48.960Z,13.70
2023-05-02T14:33:17.336Z,13.50
2023-05-02T14:35:46.026Z,13.40
2023-05-02T14:38:14.096Z,13.40
2023-05-02T14:40:42.101Z,13.50
2023-05-02T14:43:15.837Z,13.60
2023-05-02T14:45:44.039Z,13.90
2023-05-02T14:48:14.240Z,14.20
2023-05-02T14:50:42.477Z,14.50
2023-05-02T14:53:11.616Z,14.90
2023-05-02T14:55:40.397Z,15.00
2023-05-02T14:58:08.983Z,15.10
2023-05-02T15:00:39.356Z,15.20
2023-05-02T15:03:09.988Z,15.10
2023-05-02T15:05:38.256Z,14.90
2023-05-02T15:08:06.843Z,14.70
2023-05-02T15:10:38.260Z,14.50
2023-05-02T15:13:07.198Z,14.30
2023-05-02T15:15:35.330Z,14.10
2023-05-02T15:18:05.150Z,14.00
2023-05-02T15:20:33.202Z,13.80
2023-05-02T15:23:03.483Z,13.60
2023-05-02T15:25:32.311Z,13.50
2023-05-02T15:28:02.265Z,13.50
2023-05-02T15:30:30.302Z,13.40
2023-05-02T15:32:58.510Z,13.40
2023-05-02T15:35:28.187Z,13.50
2023-05-02T15:37:57.000Z,13.50
2023-05-02T15:40:26.130Z,13.60
2023-05-02T15:42:55.449Z,13.50
2023-05-02T15:45:23.460Z,13.30
2023-05-02T15:47:52.398Z,13.20
2023-05-02T15:50:20.583Z,13.20
2023-05-02T15:52:50.244Z,13.30
2023-05-02T15:55:18.489Z,13.40
2023-05-02T15:57:47.093Z,13.60
2023-05-02T16:00:16.815Z,13.70
2023-05-02T16:02:45.304Z,13.90
2023-05-02T16:05:13.670Z,14.00
2023-05-02T16:07:41.664Z,14.00
2023-05-02T16:10:11.970Z,14.00
2023-05-02T16:12:40.060Z,13.90
2023-05-02T16:15:09.329Z,13.80
2023-05-02T16:17:37.804Z,13.70
2023-05-02T16:20:06.862Z,13.50
2023-05-02T16:22:34.880Z,13.40
2023-05-02T16:25:03.259Z,13.40
2023-05-02T16:27:34.039Z,13.30
2023-05-02T16:30:02.493Z,13.30
2023-05-02T16:32:30.938Z,13.20
2023-05-02T16:34:59.003Z,13.10
2023-05-02T16:37:27.599Z,13.00
2023-05-02T16:39:57.585Z,12.90
2023-05-02T16:42:25.689Z,12.80
2023-05-02T16:44:56.560Z,12.70
2023-05-02T16:47:24.948Z,12.60
2023-05-02T16:49:56.354Z,12.60
2023-05-02T16:52:24.646Z,12.50
2023-05-02T16:54:53.188Z,12.40
2023-05-02T16:57:21.523Z,12.30
2023-05-02T16:59:50.906Z,12.10
2023-05-02T17:02:22.303Z,11.90
2023-05-02T17:04:51.156Z,11.80
2023-05-02T17:07:19.150Z,11.60
2023-05-02T17:09:47.205Z,11.50
2023-05-02T17:12:18.753Z,11.30
2023-05-02T17:14:46.754Z,11.20
2023-05-02T17:17:14.873Z,11.10
2023-05-02T17:19:44.435Z,11.00
2023-05-02T17:22:13.307Z,10.90
2023-05-02T17:24:42.358Z,10.80
2023-05-02T17:27:11.215Z,10.70
2023-05-02T17:29:39.207Z,10.70
2023-05-02T17:32:07.732Z,10.70
2023-05-02T17:34:36.843Z,10.70
2023-05-02T17:37:07.275Z,10.70
2023-05-02T17:39:35.720Z,10.80
2023-05-02T17:42:03.999Z,10.80
2023-05-02T17:44:35.229Z,10.90
2023-05-02T17:47:03.822Z,11.00
2023-05-02T17:49:32.106Z,11.00
2023-05-02T17:52:00.130Z,11.10
2023-05-02T17:54:29.667Z,11.10
2023-05-02T17:56:58.051Z,11.20
2023-05-02T17:59:27.196Z,11.20
2023-05-02T18:01:55.773Z,11.20
2023-05-02T18:04:24.331Z,11.20
2023-05-02T18:06:53.250Z,11.00
2023-05-02T18:09:22.768Z,10.90
2023-05-02T18:11:52.148Z,10.70
2023-05-02T18:14:20.168Z,10.50
2023-05-02T18:16:48.787Z,10.40
2023-05-02T18:19:16.814Z,10.20
2023-05-02T18:21:45.251Z,10.00
2023-05-02T18:24:13.411Z,9.90
2023-05-02T18:26:41.510Z,9.70
2023-05-02T18:29:10.895Z,9.50
2023-05-02T18:31:40.530Z,9.40
2023-05-02T18:34:08.820Z,9.20
2023-05-02T18:36:39.151Z,9.10
2023-05-02T18:39:07.230Z,9.00
2023-05-02T18:41:35.547Z,8.90
2023-05-02T18:44:05.155Z,8.80
2023-05-02T18:46:34.553Z,8.70
2023-05-02T18:49:02.935Z,8.60
2023-05-02T18:51:31.076Z,8.50
2023-05-02T18:53:59.089Z,8.40
2023-05-02T18:56:28.447Z,8.40
2023-05-02T18:58:56.714Z,8.30
2023-05-02T19:01:25.249Z,8.20
2023-05-02T19:03:55.122Z,8.10
2023-05-02T19:06:23.537Z,8.00
2023-05-02T19:08:51.876Z,8.00
2023-05-02T19:11:21.264Z,7.90
2023-05-02T19:13:49.558Z,7.80
2023-05-02T19:16:17.626Z,7.70
2023-05-02T19:18:45.638Z,7.60
2023-05-02T19:21:15.981Z,7.50
2023-05-02T19:23:45.093Z,7.50
2023-05-02T19:26:14.128Z,7.40
2023-05-02T19:28:43.189Z,7.30
2023-05-02T19:31:11.738Z,7.20
2023-05-02T19:33:40.693Z,7.20
2023-05-02T19:36:09.109Z,7.10
2023-05-02T19:38:38.697Z,7.10
2023-05-02T19:41:08.219Z,7.00
2023-05-02T19:43:36.472Z,7.00
2023-05-02T19:46:04.759Z,6.90
2023-05-02T19:48:32.821Z,6.80
2023-05-02T19:51:03.569Z,6.80
2023-05-02T19:53:32.433Z,6.70
2023-05-02T19:56:03.406Z,6.70
2023-05-02T19:58:31.833Z,6.70
2023-05-02T20:01:00.371Z,6.60
2023-05-02T20:03:29.022Z,6.60
2023-05-02T20:05:58.514Z,6.60
2023-05-02T20:08:27.942Z,6.60
2023-05-02T20:10:56.334Z,6.70
2023-05-02T20:13:26.016Z,6.80
2023-05-02T20:15:56.302Z,6.80
2023-05-02T20:18:24.374Z,6.90
2023-05-02T20:20:52.359Z,6.90
2023-05-02T20:23:20.376Z,7.00
2023-05-02T20:25:48.686Z,7.00
2023-05-02T20:28:16.710Z,7.00
2023-05-02T20:30:46.107Z,7.00
2023-05-02T20:33:16.628Z,6.90
2023-05-02T20:35:45.317Z,6.90
2023-05-02T20:38:13.380Z,6.80
2023-05-02T20:40:42.906Z,6.70
2023-05-02T20:43:11.824Z,6.60
2023-05-02T20:45:40.109Z,6.60
2023-05-02T20:48:12.363Z,6.50
2023-05-02T20:50:40.862Z,6.40
2023-05-02T20:53:08.895Z,6.40
2023-05-02T20:55:36.893Z,6.30
2023-05-02T20:58:04.948Z,6.20
2023-05-02T21:00:32.972Z,6.10
2023-05-02T21:03:01.078Z,6.10
2023-05-02T21:05:31.201Z,6.00
2023-05-02T21:07:59.215Z,6.00
2023-05-02T21:10:27.649Z,6.00
2023-05-02T21:12:55.780Z,6.00
2023-05-02T21:15:23.785Z,6.00
2023-05-02T21:18:00.299Z,5.90
2023-05-02T21:20:30.130Z,5.90
2023-05-02T21:22:58.135Z,5.90
2023-05-02T21:25:26.302Z,5.90
2023-05-02T21:27:54.387Z,5.80
2023-05-02T21:30:24.145Z,5.80
2023-05-02T21:32:52.250Z,5.70
2023-05-02T21:35:20.355Z,5.70
2023-05-02T21:37:49.752Z,5.70
2023-05-02T21:40:17.868Z,5.60
2023-05-02T21:42:45.889Z,5.50
2023-05-02T21:45:14.159Z,5.50
2023-05-02T21:47:42.179Z,5.40
2023-05-02T21:50:10.522Z,5.40
2023-05-02T21:52:38.595Z,5.30
2023-05-02T21:55:09.023Z,5.20
2023-05-02T21:57:37.383Z,5.20
2023-05-02T22:00:07.206Z,5.10
2023-05-02T22:02:35.278Z,5.10
2023-05-02T22:05:04.694Z,5.00
2023-05-02T22:07:32.764Z,5.00
2023-05-02T22:10:00.968Z,4.90
2023-05-02T22:12:30.515Z,4.90
2023-05-02T22:14:58.600Z,4.90
2023-05-02T22:17:26.708Z,4.80
2023-05-02T22:19:55.094Z,4.80
2023-05-02T22:22:23.077Z,4.80
2023-05-02T22:24:51.302Z,4.90
2023-05-02T22:27:19.362Z,5.00
2023-05-02T22:29:48.763Z,5.10
2023-05-02T22:32:16.891Z,5.20
2023-05-02T22:34:44.956Z,5.30
2023-05-02T22:37:12.964Z,5.40
2023-05-02T22:39:41.087Z,5.60
2023-05-02T22:42:09.255Z,5.70
2023-05-02T22:44:50.646Z,5.80
2023-05-02T22:47:23.484Z,6.00
2023-05-02T22:49:52.361Z,6.10
2023-05-02T22:52:20.623Z,6.30
2023-05-02T22:54:48.962Z,6.40
2023-05-02T22:57:16.965Z,6.50
2023-05-02T22:59:44.998Z,6.60
2023-05-02T23:02:13.414Z,6.70
2023-05-02T23:04:42.909Z,6.70
2023-05-02T23:07:10.993Z,6.80
2023-05-02T23:09:39.064Z,6.90
2023-05-02T23:12:07.249Z,6.80
2023-05-02T23:14:35.301Z,6.90
2023-05-02T23:17:03.796Z,6.80
2023-05-02T23:19:31.887Z,6.80
2023-05-02T23:22:01.470Z,6.80
2023-05-02T23:24:29.627Z,6.80
2023-05-02T23:26:57.816Z,6.70
2023-05-02T23:29:26.680Z,6.60
2023-05-02T23:31:55.521Z,6.50
2023-05-02T23:34:23.850Z,6.40
2023-05-02T23:36:53.238Z,6.30
2023-05-02T23:39:22.763Z,6.20
2023-05-02T23:41:51.362Z,6.10
2023-05-02T23:44:19.410Z,6.00
2023-05-02T23:46:47.581Z,5.90
2023-05-02T23:49:15.594Z,5.80
2023-05-02T23:51:43.667Z,5.80
2023-05-02T23:54:11.849Z,5.80
2023-05-02T23:56:41.242Z,5.80
2023-05-02T23:59:09.373Z,5.80
